This is the latest recevied weather packets stored in our database for station/object AK4NG. If no packets are shown the sender has not sent any weather packets the latest 10 day(s).
| Time | Temp. | Humidity | Pressure | Rain* | Wind** | Luminosity | Snow |
|---|---|---|---|---|---|---|---|
| 1778166849 | 21.11° C | 98% | 1014.2 hPa | 0 mm | - | 47 W/m² | - |
| 1778166546 | 21.11° C | 98% | 1014.3 hPa | 0 mm | - | 36 W/m² | - |
| 1778166242 | 21.11° C | 97% | 1014.2 hPa | 0 mm | - | 63 W/m² | - |
| 1778165938 | 21.11° C | 97% | 1013.8 hPa | 0 mm | - | 41 W/m² | - |
| 1778165634 | 21.67° C | 97% | 1013.9 hPa | 0 mm | - | 55 W/m² | - |
| 1778165332 | 21.67° C | 97% | 1013.8 hPa | 0 mm | - | 63 W/m² | - |
| 1778165029 | 21.67° C | 97% | 1013.7 hPa | 0 mm | - | 47 W/m² | - |
| 1778164726 | 22.22° C | 97% | 1013.7 hPa | 0 mm | - | 65 W/m² | - |
| 1778164423 | 22.22° C | 97% | 1013.5 hPa | 1.78 mm | - | 78 W/m² | - |
| 1778164119 | 22.22° C | 97% | 1013.5 hPa | 4.83 mm | - | 150 W/m² | - |
| 1778163815 | 22.22° C | 97% | 1013.1 hPa | 3.05 mm | - | 74 W/m² | - |
| 1778163512 | 22.22° C | 96% | 1013.3 hPa | 1.78 mm | - | 49 W/m² | - |
| 1778163209 | 22.22° C | 96% | 1013.3 hPa | 0 mm | - | 66 W/m² | - |
| 1778162905 | 22.78° C | 96% | 1013.1 hPa | 0 mm | - | 59 W/m² | - |
| 1778162602 | 22.78° C | 96% | 1013 hPa | 0 mm | - | 52 W/m² | - |
| 1778162300 | 22.78° C | 96% | 1013.1 hPa | 0 mm | - | 80 W/m² | - |
| 1778161997 | 22.78° C | 96% | 1013.1 hPa | 0 mm | - | 53 W/m² | - |
| 1778161694 | 22.78° C | 96% | 1013.3 hPa | 0 mm | - | 133 W/m² | - |
| 1778161390 | 22.78° C | 96% | 1013.1 hPa | 0 mm | - | 127 W/m² | - |
| 1778161085 | 22.78° C | 96% | 1013.3 hPa | 0 mm | - | 107 W/m² | - |
| 1778160782 | 22.78° C | 96% | 1013.1 hPa | 0 mm | - | 143 W/m² | - |
| 1778160480 | 22.78° C | 97% | 1013 hPa | 0 mm | - | 138 W/m² | - |
| 1778160176 | 22.78° C | 98% | 1012.9 hPa | 0 mm | - | 135 W/m² | - |
| 1778159874 | 22.22° C | 98% | 1013 hPa | 0 mm | - | 179 W/m² | - |
| 1778159570 | 22.22° C | 98% | 1012.8 hPa | 0 mm | - | 143 W/m² | - |
* Rain latest hour (hover to see other rain measurements)
** Current wind speed in m/s (hover to see current wind gust speed)